createdAt,value
2022-08-20T00:01:16.554Z,22.30
2022-08-20T00:03:44.835Z,22.30
2022-08-20T00:06:23.681Z,22.30
2022-08-20T00:08:51.282Z,22.20
2022-08-20T00:11:23.666Z,22.30
2022-08-20T00:13:58.011Z,22.30
2022-08-20T00:16:32.426Z,22.20
2022-08-20T00:19:01.242Z,22.20
2022-08-20T00:21:28.510Z,22.20
2022-08-20T00:23:59.811Z,22.20
2022-08-20T00:26:27.018Z,22.20
2022-08-20T00:28:54.433Z,22.20
2022-08-20T00:31:24.007Z,22.10
2022-08-20T00:33:52.334Z,22.10
2022-08-20T00:36:20.699Z,22.10
2022-08-20T00:38:48.179Z,22.10
2022-08-20T00:41:24.209Z,22.10
2022-08-20T00:44:15.060Z,22.10
2022-08-20T00:46:43.817Z,22.10
2022-08-20T00:49:22.247Z,22.10
2022-08-20T00:51:55.356Z,22.00
2022-08-20T00:54:37.421Z,22.00
2022-08-20T00:57:12.943Z,22.00
2022-08-20T00:59:42.203Z,22.00
2022-08-20T01:02:14.787Z,22.00
2022-08-20T01:04:47.156Z,22.00
2022-08-20T01:07:14.149Z,22.00
2022-08-20T01:09:57.420Z,22.00
2022-08-20T01:12:29.540Z,22.00
2022-08-20T01:15:00.362Z,22.00
2022-08-20T01:17:32.882Z,22.00
2022-08-20T01:20:06.035Z,22.00
2022-08-20T01:23:20.559Z,21.90
2022-08-20T01:25:51.972Z,21.90
2022-08-20T01:28:28.450Z,21.80
2022-08-20T01:30:55.963Z,21.90
2022-08-20T01:33:27.014Z,21.90
2022-08-20T01:35:54.858Z,21.80
2022-08-20T01:38:22.111Z,21.90
2022-08-20T01:41:36.511Z,21.80
2022-08-20T01:44:04.869Z,21.80
2022-08-20T01:46:44.082Z,21.80
2022-08-20T01:49:32.956Z,21.80
2022-08-20T01:52:05.577Z,21.70
2022-08-20T01:54:34.258Z,21.70
2022-08-20T01:57:12.287Z,21.70
2022-08-20T01:59:39.580Z,21.70
2022-08-20T02:02:08.172Z,21.70
2022-08-20T02:04:36.605Z,21.70
2022-08-20T02:07:07.264Z,21.60
2022-08-20T02:09:37.930Z,21.60
2022-08-20T02:12:08.786Z,21.60
2022-08-20T02:14:42.357Z,21.60
2022-08-20T02:17:10.922Z,21.60
2022-08-20T02:19:41.944Z,21.60
2022-08-20T02:22:49.191Z,21.60
2022-08-20T02:25:23.198Z,21.50
2022-08-20T02:27:52.697Z,21.50
2022-08-20T02:30:33.227Z,21.50
2022-08-20T02:33:03.778Z,21.50
2022-08-20T02:35:31.942Z,21.40
2022-08-20T02:38:02.869Z,21.40
2022-08-20T02:40:32.116Z,21.40
2022-08-20T02:43:01.550Z,21.40
2022-08-20T02:45:31.599Z,21.30
2022-08-20T02:47:59.304Z,21.30
2022-08-20T02:50:27.527Z,21.30
2022-08-20T02:52:55.007Z,21.30
2022-08-20T02:55:26.894Z,21.30
2022-08-20T02:57:57.526Z,21.30
2022-08-20T03:00:37.849Z,21.30
2022-08-20T03:03:10.300Z,21.30
2022-08-20T03:05:41.510Z,21.30
2022-08-20T03:08:11.856Z,21.20
2022-08-20T03:10:40.584Z,21.20
2022-08-20T03:13:12.354Z,21.20
2022-08-20T03:15:46.608Z,21.20
2022-08-20T03:18:15.571Z,21.20
2022-08-20T03:20:43.086Z,21.10
2022-08-20T03:23:17.125Z,21.10
2022-08-20T03:25:44.602Z,21.10
2022-08-20T03:28:12.222Z,21.10
2022-08-20T03:30:41.222Z,21.10
2022-08-20T03:33:08.831Z,21.10
2022-08-20T03:35:37.305Z,21.10
2022-08-20T03:38:11.198Z,21.10
2022-08-20T03:40:39.120Z,21.10
2022-08-20T03:43:11.262Z,21.10
2022-08-20T03:45:41.731Z,21.10
2022-08-20T03:48:15.895Z,21.10
2022-08-20T03:50:43.449Z,21.10
2022-08-20T03:53:14.654Z,21.10
2022-08-20T03:55:53.893Z,21.00
2022-08-20T03:58:33.283Z,21.00
2022-08-20T04:01:07.269Z,21.00
2022-08-20T04:03:35.933Z,21.00
2022-08-20T04:06:03.504Z,21.00
2022-08-20T04:08:30.575Z,21.00
2022-08-20T04:10:58.244Z,21.00
2022-08-20T04:13:27.439Z,21.00
2022-08-20T04:15:57.995Z,21.00
2022-08-20T04:18:26.985Z,21.00
2022-08-20T04:20:54.442Z,21.10
2022-08-20T04:23:22.613Z,21.00
2022-08-20T04:25:49.906Z,21.00
2022-08-20T04:28:26.910Z,21.00
2022-08-20T04:30:57.287Z,21.00
2022-08-20T04:33:33.914Z,21.00
2022-08-20T04:36:05.485Z,21.10
2022-08-20T04:38:50.647Z,21.10
2022-08-20T04:41:23.590Z,21.10
2022-08-20T04:43:56.280Z,21.10
2022-08-20T04:46:29.742Z,21.10
2022-08-20T04:48:57.823Z,21.10
2022-08-20T04:51:26.798Z,21.20
2022-08-20T04:53:56.295Z,21.20
2022-08-20T04:56:28.421Z,21.20
2022-08-20T04:58:59.894Z,21.20
2022-08-20T05:01:28.146Z,21.20
2022-08-20T05:03:57.265Z,21.30
2022-08-20T05:06:31.045Z,21.20
2022-08-20T05:09:00.283Z,21.30
2022-08-20T05:11:34.494Z,21.30
2022-08-20T05:14:07.889Z,21.30
2022-08-20T05:16:39.474Z,21.40
2022-08-20T05:19:09.996Z,21.40
2022-08-20T05:21:37.686Z,21.40
2022-08-20T05:24:06.200Z,21.50
2022-08-20T05:26:33.707Z,21.50
2022-08-20T05:29:00.662Z,21.50
2022-08-20T05:31:31.977Z,21.60
2022-08-20T05:34:11.882Z,21.60
2022-08-20T05:36:48.173Z,21.70
2022-08-20T05:39:18.348Z,21.70
2022-08-20T05:41:45.929Z,21.70
2022-08-20T05:44:15.951Z,21.80
2022-08-20T05:46:46.178Z,21.80
2022-08-20T05:49:19.543Z,21.80
2022-08-20T05:51:47.655Z,21.80
2022-08-20T05:54:15.649Z,21.80
2022-08-20T05:56:43.109Z,21.80
2022-08-20T05:59:11.284Z,21.80
2022-08-20T06:01:40.379Z,21.90
2022-08-20T06:04:24.846Z,21.90
2022-08-20T06:06:54.910Z,21.90
2022-08-20T06:09:31.172Z,22.00
2022-08-20T06:12:02.408Z,22.00
2022-08-20T06:14:29.999Z,22.10
2022-08-20T06:17:04.779Z,22.10
2022-08-20T06:19:33.188Z,22.20
2022-08-20T06:22:01.626Z,22.20
2022-08-20T06:24:28.906Z,22.30
2022-08-20T06:27:01.864Z,22.30
2022-08-20T06:29:29.721Z,22.30
2022-08-20T06:31:56.825Z,22.40
2022-08-20T06:34:28.375Z,22.40
2022-08-20T06:36:58.982Z,22.40
2022-08-20T06:39:29.056Z,22.50
2022-08-20T06:41:56.174Z,22.50
2022-08-20T06:44:24.232Z,22.60
2022-08-20T06:46:51.175Z,22.60
2022-08-20T06:49:18.580Z,22.70
2022-08-20T06:51:45.588Z,22.70
2022-08-20T06:54:17.268Z,22.70
2022-08-20T06:56:44.226Z,22.80
2022-08-20T06:59:11.150Z,22.90
2022-08-20T07:01:38.189Z,22.80
2022-08-20T07:04:05.634Z,23.00
2022-08-20T07:06:32.718Z,23.00
2022-08-20T07:08:59.796Z,23.00
2022-08-20T07:11:28.433Z,23.10
2022-08-20T07:13:58.401Z,23.10
2022-08-20T07:16:25.711Z,23.10
2022-08-20T07:18:52.706Z,23.10
2022-08-20T07:21:19.673Z,23.20
2022-08-20T07:23:48.951Z,23.20
2022-08-20T07:26:16.098Z,23.30
2022-08-20T07:28:43.255Z,23.30
2022-08-20T07:31:29.075Z,23.30
2022-08-20T07:33:58.426Z,23.30
2022-08-20T07:36:27.010Z,23.30
2022-08-20T07:38:54.719Z,23.30
2022-08-20T07:41:23.985Z,23.40
2022-08-20T07:43:51.025Z,23.40
2022-08-20T07:46:21.559Z,23.50
2022-08-20T07:48:50.316Z,23.50
2022-08-20T07:51:20.199Z,23.50
2022-08-20T07:53:48.692Z,23.50
2022-08-20T07:56:21.324Z,23.50
2022-08-20T07:58:55.434Z,23.60
2022-08-20T08:01:30.447Z,23.60
2022-08-20T08:03:59.132Z,23.60
2022-08-20T08:06:29.394Z,23.60
2022-08-20T08:09:14.016Z,23.60
2022-08-20T08:11:50.798Z,23.70
2022-08-20T08:14:24.824Z,23.70
2022-08-20T08:16:57.372Z,23.70
2022-08-20T08:19:27.341Z,23.70
2022-08-20T08:21:57.243Z,23.70
2022-08-20T08:24:28.480Z,23.70
2022-08-20T08:26:55.738Z,23.70
2022-08-20T08:29:22.659Z,23.80
2022-08-20T08:31:49.656Z,23.80
2022-08-20T08:34:17.394Z,23.90
2022-08-20T08:36:44.335Z,23.90
2022-08-20T08:39:11.524Z,24.00
2022-08-20T08:41:47.954Z,24.00
2022-08-20T08:44:23.898Z,24.00
2022-08-20T08:47:01.658Z,24.00
2022-08-20T08:49:38.149Z,24.00
2022-08-20T08:52:11.396Z,24.00
2022-08-20T08:54:45.320Z,24.00
2022-08-20T08:57:12.531Z,24.10
2022-08-20T08:59:55.037Z,24.10
2022-08-20T09:02:30.637Z,24.10
2022-08-20T09:05:00.693Z,24.10
2022-08-20T09:07:33.355Z,24.10
2022-08-20T09:10:02.546Z,24.00
2022-08-20T09:12:29.590Z,24.00
2022-08-20T09:14:57.356Z,24.00
2022-08-20T09:17:24.625Z,23.90
2022-08-20T09:19:52.343Z,23.90
2022-08-20T09:22:25.946Z,23.80
2022-08-20T09:24:53.419Z,23.80
2022-08-20T09:27:20.898Z,23.70
2022-08-20T09:29:49.336Z,23.70
2022-08-20T09:32:24.575Z,23.70
2022-08-20T09:34:56.559Z,23.60
2022-08-20T09:37:26.135Z,23.60
2022-08-20T09:39:53.258Z,23.50
2022-08-20T09:42:25.053Z,23.40
2022-08-20T09:44:52.033Z,23.40
2022-08-20T09:47:19.539Z,23.30
2022-08-20T09:49:47.155Z,23.30
2022-08-20T09:52:46.745Z,23.30
2022-08-20T09:55:28.770Z,23.20
2022-08-20T09:57:55.982Z,23.10
2022-08-20T10:00:23.018Z,23.00
2022-08-20T10:02:49.952Z,22.90
2022-08-20T10:05:17.001Z,22.80
2022-08-20T10:07:44.111Z,22.70
2022-08-20T10:10:15.481Z,22.60
2022-08-20T10:12:43.287Z,22.50
2022-08-20T10:15:10.993Z,22.50
2022-08-20T10:17:40.755Z,23.90
2022-08-20T10:20:10.812Z,22.30
2022-08-20T10:22:38.314Z,22.20
2022-08-20T10:25:06.763Z,22.10
2022-08-20T10:27:34.042Z,22.10
2022-08-20T10:30:00.998Z,22.10
2022-08-20T10:32:28.036Z,22.10
2022-08-20T10:34:54.988Z,22.00
2022-08-20T10:37:24.626Z,22.10
2022-08-20T10:39:52.948Z,22.10
2022-08-20T10:42:20.321Z,22.10
2022-08-20T10:44:47.302Z,22.20
2022-08-20T10:47:30.948Z,22.20
2022-08-20T10:50:03.258Z,22.30
2022-08-20T10:52:30.436Z,22.30
2022-08-20T10:54:57.528Z,22.40
2022-08-20T10:57:29.577Z,22.50
2022-08-20T10:59:58.858Z,22.50
2022-08-20T11:02:27.343Z,22.50
2022-08-20T11:04:55.041Z,22.60
2022-08-20T11:07:54.832Z,22.80
2022-08-20T11:10:27.637Z,22.80
2022-08-20T11:12:55.012Z,22.90
2022-08-20T11:15:22.064Z,23.00
2022-08-20T11:17:49.042Z,23.00
2022-08-20T11:20:18.759Z,23.00
2022-08-20T11:22:46.292Z,23.10
2022-08-20T11:25:13.883Z,23.10
2022-08-20T11:27:46.827Z,23.10
2022-08-20T11:30:20.155Z,23.10
2022-08-20T11:32:47.141Z,23.10
2022-08-20T11:35:41.186Z,23.10
2022-08-20T11:38:02.096Z,23.10
2022-08-20T11:40:31.583Z,23.10
2022-08-20T11:43:14.236Z,23.10
2022-08-20T11:45:42.927Z,23.10
2022-08-20T11:48:09.831Z,23.00
2022-08-20T11:50:36.791Z,23.00
2022-08-20T11:53:03.909Z,23.00
2022-08-20T11:55:31.059Z,23.00
2022-08-20T11:58:00.309Z,23.10
2022-08-20T12:00:32.619Z,23.20
2022-08-20T12:03:09.421Z,23.30
2022-08-20T12:05:39.325Z,23.30
2022-08-20T12:08:06.931Z,23.40
2022-08-20T12:10:34.313Z,23.40
2022-08-20T12:13:02.659Z,23.50
2022-08-20T12:15:33.422Z,23.50
2022-08-20T12:18:01.250Z,23.50
2022-08-20T12:20:28.321Z,23.40
2022-08-20T12:22:55.542Z,23.40
2022-08-20T12:25:22.613Z,23.30
2022-08-20T12:27:49.602Z,23.40
2022-08-20T12:30:21.897Z,23.40
2022-08-20T12:32:49.063Z,23.40
2022-08-20T12:35:18.705Z,23.30
2022-08-20T12:37:47.151Z,23.30
2022-08-20T12:40:30.756Z,23.30
2022-08-20T12:43:00.966Z,23.30
2022-08-20T12:45:28.357Z,23.30
2022-08-20T12:48:09.817Z,23.20
2022-08-20T12:50:39.854Z,23.30
2022-08-20T12:53:07.574Z,23.20
2022-08-20T12:55:35.365Z,23.30
2022-08-20T12:58:05.101Z,23.30
2022-08-20T13:00:43.201Z,23.30
2022-08-20T13:03:12.297Z,23.40
2022-08-20T13:05:39.990Z,23.40
2022-08-20T13:08:10.011Z,23.50
2022-08-20T13:10:45.398Z,23.60
2022-08-20T13:13:20.925Z,23.60
2022-08-20T13:15:50.361Z,23.70
2022-08-20T13:18:18.206Z,23.70
2022-08-20T13:20:45.226Z,23.70
2022-08-20T13:23:12.211Z,23.60
2022-08-20T13:25:39.304Z,23.60
2022-08-20T13:28:06.334Z,23.60
2022-08-20T13:30:38.490Z,23.50
2022-08-20T13:33:05.562Z,23.50
2022-08-20T13:35:32.740Z,23.50
2022-08-20T13:37:59.808Z,23.50
2022-08-20T13:40:26.837Z,23.50
2022-08-20T13:42:53.890Z,23.50
2022-08-20T13:45:21.118Z,23.50
2022-08-20T13:47:54.106Z,23.40
2022-08-20T13:50:25.406Z,23.40
2022-08-20T13:52:52.444Z,23.40
2022-08-20T13:55:23.236Z,23.30
2022-08-20T13:57:50.934Z,23.30
2022-08-20T14:00:31.310Z,21.60
2022-08-20T14:03:02.783Z,23.20
2022-08-20T14:05:30.960Z,23.10
2022-08-20T14:08:12.667Z,23.10
2022-08-20T14:10:42.521Z,23.10
2022-08-20T14:13:15.107Z,23.10
2022-08-20T14:15:42.535Z,23.00
2022-08-20T14:18:09.734Z,23.00
2022-08-20T14:20:38.698Z,23.00
2022-08-20T14:23:06.413Z,22.90
2022-08-20T14:25:33.721Z,22.80
2022-08-20T14:28:18.347Z,22.80
2022-08-20T14:30:52.578Z,22.70
2022-08-20T14:33:21.118Z,22.70
2022-08-20T14:35:48.113Z,22.60
2022-08-20T14:38:15.098Z,22.60
2022-08-20T14:40:42.089Z,22.60
2022-08-20T14:43:08.986Z,22.60
2022-08-20T14:45:35.969Z,22.60
2022-08-20T14:48:08.878Z,22.60
2022-08-20T14:50:36.889Z,22.60
2022-08-20T14:53:04.948Z,22.50
2022-08-20T14:55:37.319Z,22.50
2022-08-20T14:58:12.537Z,22.50
2022-08-20T15:00:40.277Z,22.50
2022-08-20T15:03:07.302Z,22.50
2022-08-20T15:05:39.540Z,22.60
2022-08-20T15:08:08.017Z,22.40
2022-08-20T15:10:37.086Z,22.40
2022-08-20T15:13:04.017Z,22.30
2022-08-20T15:15:30.988Z,22.30
2022-08-20T15:18:00.333Z,22.30
2022-08-20T15:20:32.517Z,22.30
2022-08-20T15:23:00.366Z,22.20
2022-08-20T15:25:36.220Z,22.20
2022-08-20T15:28:06.971Z,22.20
2022-08-20T15:30:34.560Z,22.20
2022-08-20T15:33:02.312Z,22.20
2022-08-20T15:35:29.766Z,22.20
2022-08-20T15:37:59.078Z,22.20
2022-08-20T15:40:30.779Z,22.20
2022-08-20T15:43:00.257Z,22.20
2022-08-20T15:45:27.551Z,22.20
2022-08-20T15:48:08.219Z,22.20
2022-08-20T15:51:03.200Z,22.10
2022-08-20T15:54:00.351Z,22.10
2022-08-20T15:56:55.158Z,22.10
2022-08-20T15:59:58.126Z,22.10
2022-08-20T16:03:00.554Z,22.00
2022-08-20T16:06:13.720Z,22.00
2022-08-20T16:09:18.005Z,22.00
2022-08-20T16:12:05.977Z,22.00
2022-08-20T16:14:41.861Z,22.00
2022-08-20T16:17:24.606Z,22.00
2022-08-20T16:20:18.707Z,22.00
2022-08-20T16:22:46.908Z,21.90
2022-08-20T16:25:15.633Z,21.90
2022-08-20T16:27:59.560Z,21.90
2022-08-20T16:30:46.027Z,21.90
2022-08-20T16:33:26.656Z,22.00
2022-08-20T16:36:10.188Z,22.00
2022-08-20T16:38:46.434Z,22.00
2022-08-20T16:41:32.374Z,22.40
2022-08-20T16:44:41.866Z,22.00
2022-08-20T16:47:22.144Z,22.00
2022-08-20T16:50:12.231Z,21.90
2022-08-20T16:52:45.814Z,21.90
2022-08-20T16:55:15.926Z,21.90
2022-08-20T16:57:44.407Z,21.90
2022-08-20T17:00:35.521Z,21.70
2022-08-20T17:03:10.175Z,21.80
2022-08-20T17:05:50.035Z,21.80
2022-08-20T17:08:29.091Z,21.80
2022-08-20T17:11:17.301Z,21.70
2022-08-20T17:13:47.840Z,21.70
2022-08-20T17:16:14.688Z,21.70
2022-08-20T17:18:49.657Z,21.60
2022-08-20T17:21:26.063Z,21.60
2022-08-20T17:24:02.477Z,21.60
2022-08-20T17:26:41.998Z,21.60
2022-08-20T17:29:25.843Z,21.60
2022-08-20T17:32:19.054Z,21.50
2022-08-20T17:34:56.943Z,21.50
2022-08-20T17:37:28.551Z,21.50
2022-08-20T17:40:19.493Z,21.40
2022-08-20T17:43:03.830Z,21.40
2022-08-20T17:45:40.440Z,21.40
2022-08-20T17:48:17.122Z,21.30
2022-08-20T17:50:44.511Z,21.30
2022-08-20T17:53:23.322Z,21.30
2022-08-20T17:56:00.695Z,21.30
2022-08-20T17:58:56.542Z,21.30
2022-08-20T18:01:25.974Z,21.30
2022-08-20T18:03:53.853Z,21.20
2022-08-20T18:06:35.611Z,21.20
2022-08-20T18:09:17.192Z,21.20
2022-08-20T18:12:07.946Z,21.10
2022-08-20T18:15:24.725Z,19.20
2022-08-20T18:18:28.941Z,21.10
2022-08-20T18:21:39.142Z,21.00
2022-08-20T18:24:12.570Z,21.10
2022-08-20T18:26:54.284Z,21.10
2022-08-20T18:29:35.191Z,21.00
2022-08-20T18:32:26.825Z,21.00
2022-08-20T18:34:54.584Z,21.00
2022-08-20T18:37:27.625Z,21.00
2022-08-20T18:40:29.803Z,21.00
2022-08-20T18:43:11.745Z,21.00
2022-08-20T18:45:38.722Z,21.00
2022-08-20T18:48:06.046Z,21.00
2022-08-20T18:50:38.988Z,21.00
2022-08-20T18:53:08.519Z,20.80
2022-08-20T18:56:03.269Z,20.90
2022-08-20T18:58:52.548Z,20.90
2022-08-20T19:01:19.982Z,20.90
2022-08-20T19:03:52.385Z,20.90
2022-08-20T19:06:42.394Z,20.90
2022-08-20T19:09:55.404Z,20.80
2022-08-20T19:13:27.702Z,20.80
2022-08-20T19:16:07.475Z,20.80
2022-08-20T19:18:47.120Z,20.80
2022-08-20T19:21:21.054Z,20.70
2022-08-20T19:23:52.615Z,20.80
2022-08-20T19:26:25.022Z,20.70
2022-08-20T19:29:03.010Z,20.80
2022-08-20T19:31:34.281Z,20.80
2022-08-20T19:34:20.449Z,20.70
2022-08-20T19:37:35.009Z,20.70
2022-08-20T19:39:53.728Z,20.70
2022-08-20T19:42:32.048Z,20.60
2022-08-20T19:45:07.057Z,20.60
2022-08-20T19:47:49.625Z,20.60
2022-08-20T19:50:41.243Z,20.60
2022-08-20T19:53:30.728Z,20.60
2022-08-20T19:56:17.461Z,20.60
2022-08-20T19:58:44.934Z,20.60
2022-08-20T20:01:20.159Z,20.60
2022-08-20T20:04:07.004Z,20.60
2022-08-20T20:06:44.612Z,20.60
2022-08-20T20:09:26.166Z,20.50
2022-08-20T20:12:02.782Z,20.50
2022-08-20T20:14:34.262Z,20.50
2022-08-20T20:17:06.298Z,20.50
2022-08-20T20:20:26.390Z,20.50
2022-08-20T20:23:24.390Z,20.50
2022-08-20T20:26:00.183Z,20.50
2022-08-20T20:28:31.574Z,20.50
2022-08-20T20:31:08.879Z,20.50
2022-08-20T20:33:44.097Z,20.50
2022-08-20T20:36:18.696Z,20.50
2022-08-20T20:39:04.542Z,20.50
2022-08-20T20:41:32.484Z,20.50
2022-08-20T20:44:07.550Z,20.50
2022-08-20T20:46:36.431Z,20.50
2022-08-20T20:49:09.248Z,20.50
2022-08-20T20:51:51.926Z,20.50
2022-08-20T20:54:30.630Z,20.50
2022-08-20T20:57:23.929Z,20.40
2022-08-20T21:00:17.467Z,20.50
2022-08-20T21:02:46.459Z,20.40
2022-08-20T21:05:16.705Z,20.40
2022-08-20T21:08:03.371Z,20.40
2022-08-20T21:10:36.413Z,20.40
2022-08-20T21:13:06.658Z,20.40
2022-08-20T21:15:36.039Z,20.40
2022-08-20T21:18:06.853Z,20.40
2022-08-20T21:20:35.136Z,20.40
2022-08-20T21:23:05.278Z,20.30
2022-08-20T21:25:34.253Z,20.40
2022-08-20T21:28:02.251Z,20.40
2022-08-20T21:30:29.819Z,20.40
2022-08-20T21:32:56.960Z,20.40
2022-08-20T21:35:24.093Z,20.40
2022-08-20T21:37:51.542Z,20.40
2022-08-20T21:40:21.617Z,20.30
2022-08-20T21:42:49.085Z,20.40
2022-08-20T21:45:18.531Z,20.30
2022-08-20T21:47:46.826Z,20.30
2022-08-20T21:50:19.096Z,20.30
2022-08-20T21:52:55.121Z,20.30
2022-08-20T21:55:30.390Z,20.30
2022-08-20T21:57:58.595Z,20.30
2022-08-20T22:01:11.167Z,20.30
2022-08-20T22:03:38.868Z,20.30
2022-08-20T22:06:12.389Z,20.30
2022-08-20T22:08:40.568Z,20.30
2022-08-20T22:11:10.646Z,20.20
2022-08-20T22:13:45.594Z,20.30
2022-08-20T22:16:18.205Z,20.50
2022-08-20T22:18:46.382Z,20.30
2022-08-20T22:21:34.333Z,20.30
2022-08-20T22:24:08.155Z,20.30
2022-08-20T22:26:40.100Z,20.20
2022-08-20T22:29:09.731Z,20.20
2022-08-20T22:31:40.972Z,20.20
2022-08-20T22:34:10.792Z,20.20
2022-08-20T22:36:38.689Z,20.20
2022-08-20T22:39:06.990Z,20.20
2022-08-20T22:41:34.179Z,20.20
2022-08-20T22:44:01.315Z,20.20
2022-08-20T22:46:34.884Z,20.10
2022-08-20T22:49:03.953Z,20.10
2022-08-20T22:51:34.977Z,20.10
2022-08-20T22:54:05.360Z,20.10
2022-08-20T22:56:32.580Z,20.10
2022-08-20T22:59:02.134Z,21.40
2022-08-20T23:01:29.455Z,20.10
2022-08-20T23:04:32.788Z,20.10
2022-08-20T23:07:01.824Z,20.10
2022-08-20T23:09:30.203Z,20.10
2022-08-20T23:11:57.599Z,20.00
2022-08-20T23:14:27.178Z,20.30
2022-08-20T23:17:13.691Z,20.00
2022-08-20T23:19:42.058Z,20.00
2022-08-20T23:22:09.629Z,20.00
2022-08-20T23:24:37.310Z,20.10
2022-08-20T23:27:06.851Z,20.10
2022-08-20T23:29:34.243Z,20.00
2022-08-20T23:32:03.653Z,20.00
2022-08-20T23:34:30.786Z,20.10
2022-08-20T23:36:58.245Z,20.00
2022-08-20T23:39:26.909Z,20.00
2022-08-20T23:41:54.154Z,20.00
2022-08-20T23:44:25.464Z,20.00
2022-08-20T23:47:02.316Z,20.00
2022-08-20T23:49:31.697Z,20.20
2022-08-20T23:52:00.628Z,20.00
2022-08-20T23:54:32.727Z,17.90
2022-08-20T23:56:59.726Z,20.10
2022-08-20T23:59:26.727Z,20.10
